Time;durP1;ratioP1;P1;durP2;ratioP2;P2;SDS_P1;SDS_P2;PMS_P1;PMS_P2;Temp;Humidity;BMP_temperature;BMP_pressure;BME280_temperature;BME280_humidity;BME280_pressure;Samples;Min_cycle;Max_cycle;Signal;HPM_P1;HPM_P2
2021/03/30 00:00:47;;;;;;;3.72;3.20;;;8.50;32.50;;;;;;4942202;29;20514;-80
2021/03/30 00:03:15;;;;;;;4.18;3.17;;;8.60;32.10;;;;;;4940460;29;20214;-80
2021/03/30 00:05:42;;;;;;;4.28;3.38;;;8.70;31.60;;;;;;4941110;29;20261;-80
2021/03/30 00:08:08;;;;;;;5.38;3.55;;;8.60;31.70;;;;;;4943264;29;20777;-81
2021/03/30 00:10:37;;;;;;;6.38;3.75;;;8.60;31.40;;;;;;4948637;29;20678;-82
2021/03/30 00:13:04;;;;;;;3.53;3.22;;;8.60;31.50;;;;;;4953489;28;20279;-83
2021/03/30 00:15:31;;;;;;;4.82;2.60;;;8.50;32.00;;;;;;4955418;28;20218;-82
2021/03/30 00:17:57;;;;;;;4.32;3.47;;;8.50;31.90;;;;;;4951157;29;20231;-82
2021/03/30 00:20:24;;;;;;;5.18;3.00;;;8.50;31.90;;;;;;4951068;29;20207;-81
2021/03/30 00:22:52;;;;;;;4.78;3.20;;;8.40;31.70;;;;;;4957336;28;20194;-84
2021/03/30 00:25:18;;;;;;;3.63;2.90;;;8.40;31.80;;;;;;4958173;28;20225;-84
2021/03/30 00:27:45;;;;;;;4.25;3.00;;;8.30;31.80;;;;;;4958180;28;20229;-84
2021/03/30 00:30:13;;;;;;;4.30;3.10;;;8.30;32.10;;;;;;4957489;28;20306;-82
2021/03/30 00:32:40;;;;;;;5.60;3.35;;;8.30;32.20;;;;;;4947142;29;20214;-82
2021/03/30 00:35:08;;;;;;;6.03;3.83;;;8.20;32.20;;;;;;4947515;29;20234;-82
2021/03/30 00:37:35;;;;;;;3.47;3.17;;;8.20;32.20;;;;;;4953256;29;20233;-82
2021/03/30 00:40:04;;;;;;;4.25;3.15;;;8.20;32.30;;;;;;4952763;29;20265;-81
2021/03/30 00:42:30;;;;;;;6.40;3.65;;;8.20;32.50;;;;;;4942434;29;20609;-82
2021/03/30 00:44:58;;;;;;;5.65;3.40;;;8.10;32.60;;;;;;4939565;29;20221;-81
2021/03/30 00:47:25;;;;;;;5.20;3.08;;;8.10;32.70;;;;;;4939501;29;20231;-82
2021/03/30 00:49:52;;;;;;;3.50;3.20;;;8.10;32.90;;;;;;4940191;29;20206;-81
2021/03/30 00:52:19;;;;;;;3.38;3.00;;;8.00;33.10;;;;;;4940150;29;20537;-81
2021/03/30 00:54:47;;;;;;;5.43;3.47;;;8.00;33.40;;;;;;4946109;29;20211;-80
2021/03/30 00:57:16;;;;;;;6.50;3.55;;;7.90;33.40;;;;;;4953442;29;20217;-80
2021/03/30 00:59:42;;;;;;;5.05;3.60;;;7.90;34.10;;;;;;4947187;29;20213;-80
2021/03/30 01:02:09;;;;;;;6.90;3.63;;;7.80;33.40;;;;;;4944938;29;20218;-81
2021/03/30 01:04:36;;;;;;;6.07;3.97;;;7.70;33.50;;;;;;4943705;29;20251;-80
2021/03/30 01:07:03;;;;;;;4.13;3.40;;;7.60;33.80;;;;;;4942818;29;20237;-81
2021/03/30 01:09:37;;;;;;;4.65;3.63;;;7.60;33.80;;;;;;4948222;29;20270;-81
2021/03/30 01:12:33;;;;;;;3.28;2.97;;;7.50;34.00;;;;;;4944272;29;20215;-81
2021/03/30 01:15:11;;;;;;;4.55;3.60;;;7.60;33.80;;;;;;4943576;29;20242;-81
2021/03/30 01:17:48;;;;;;;5.60;3.25;;;7.60;33.40;;;;;;4947189;29;20293;-81
2021/03/30 01:20:47;;;;;;;3.50;3.10;;;7.60;33.20;;;;;;4947734;29;20195;-81
2021/03/30 01:23:47;;;;;;;4.03;3.47;;;7.60;33.30;;;;;;4952702;29;20247;-81
2021/03/30 01:26:32;;;;;;;4.72;3.60;;;7.60;33.40;;;;;;4954177;29;20273;-81
2021/03/30 01:29:20;;;;;;;3.38;3.08;;;7.50;33.80;;;;;;4953742;29;20226;-81
2021/03/30 01:31:49;;;;;;;4.53;3.17;;;7.50;34.40;;;;;;4942860;29;20262;-81
2021/03/30 01:34:19;;;;;;;4.72;3.40;;;7.50;34.30;;;;;;4943088;29;20239;-80
2021/03/30 01:36:46;;;;;;;3.50;3.10;;;7.40;34.20;;;;;;4942246;29;20252;-81
2021/03/30 01:39:15;;;;;;;5.55;3.45;;;7.40;34.60;;;;;;4941773;29;20252;-82
2021/03/30 01:41:45;;;;;;;3.88;3.47;;;7.30;34.80;;;;;;4942550;29;20222;-81
2021/03/30 01:44:13;;;;;;;5.43;3.55;;;7.30;35.10;;;;;;4945045;29;20211;-81
2021/03/30 01:46:41;;;;;;;4.45;3.55;;;7.20;35.30;;;;;;4946261;29;20894;-81
2021/03/30 01:49:09;;;;;;;4.88;3.40;;;7.30;35.50;;;;;;4947079;29;20710;-81
2021/03/30 01:51:36;;;;;;;3.72;3.40;;;7.20;35.60;;;;;;4940625;29;20580;-82
2021/03/30 01:54:05;;;;;;;3.67;3.03;;;7.20;35.80;;;;;;4946926;28;20310;-83
2021/03/30 01:56:33;;;;;;;5.05;3.22;;;7.10;35.60;;;;;;4958589;28;20246;-82
2021/03/30 01:59:02;;;;;;;5.07;3.58;;;7.10;35.90;;;;;;4951626;28;20238;-82
2021/03/30 02:01:30;;;;;;;3.70;3.30;;;7.00;36.20;;;;;;4959757;28;20203;-79
2021/03/30 02:03:59;;;;;;;4.82;3.28;;;6.90;35.70;;;;;;4960346;28;20209;-80
2021/03/30 02:06:27;;;;;;;4.68;3.10;;;6.90;35.60;;;;;;4960183;28;20186;-80
2021/03/30 02:08:58;;;;;;;4.80;3.33;;;6.90;35.60;;;;;;4942919;28;20702;-81
2021/03/30 02:11:28;;;;;;;5.72;3.50;;;6.90;35.70;;;;;;4939611;29;20268;-80
2021/03/30 02:13:56;;;;;;;4.53;3.03;;;6.90;35.60;;;;;;4945342;29;20210;-80
2021/03/30 02:16:28;;;;;;;4.97;3.25;;;6.90;35.70;;;;;;4942313;29;20214;-80
2021/03/30 02:19:07;;;;;;;5.18;3.65;;;6.80;35.80;;;;;;4943712;29;20246;-80
2021/03/30 02:21:38;;;;;;;4.97;3.20;;;6.80;36.30;;;;;;4939287;29;20217;-81
2021/03/30 02:24:09;;;;;;;9.25;3.47;;;6.70;37.20;;;;;;4946078;29;20244;-82
2021/03/30 02:26:38;;;;;;;5.03;3.10;;;6.60;37.50;;;;;;4954268;29;20218;-82
2021/03/30 02:29:07;;;;;;;3.75;3.17;;;6.60;36.70;;;;;;4945014;29;20254;-82
2021/03/30 02:31:34;;;;;;;3.90;3.10;;;6.60;37.50;;;;;;4941563;29;20214;-81
2021/03/30 02:34:07;;;;;;;3.72;3.15;;;6.50;37.50;;;;;;4940444;29;20605;-81
2021/03/30 02:36:34;;;;;;;4.47;3.13;;;6.50;37.50;;;;;;4940984;29;20286;-80
2021/03/30 02:39:05;;;;;;;3.30;2.97;;;6.50;37.50;;;;;;4941006;29;20737;-81
2021/03/30 02:41:33;;;;;;;3.17;2.88;;;6.50;37.50;;;;;;4947592;29;20262;-81
2021/03/30 02:44:01;;;;;;;3.15;2.67;;;6.50;37.20;;;;;;4949650;29;20257;-80
2021/03/30 02:46:29;;;;;;;3.67;2.83;;;6.40;38.10;;;;;;4941785;29;20217;-80
2021/03/30 02:48:56;;;;;;;7.15;2.92;;;6.50;37.50;;;;;;4940684;29;20329;-81
2021/03/30 02:51:25;;;;;;;8.02;3.10;;;6.40;37.40;;;;;;4945435;29;20202;-83
2021/03/30 02:53:53;;;;;;;3.63;2.42;;;6.40;37.40;;;;;;4944060;29;20366;-81
2021/03/30 02:56:21;;;;;;;4.47;2.72;;;6.30;37.30;;;;;;4943563;29;20669;-81
2021/03/30 02:58:47;;;;;;;3.33;3.03;;;6.20;37.20;;;;;;4953980;28;20246;-81
2021/03/30 03:01:15;;;;;;;8.57;3.20;;;6.20;37.20;;;;;;4942961;29;20218;-82
2021/03/30 03:03:43;;;;;;;3.28;2.80;;;6.10;37.10;;;;;;4941855;29;20211;-82
2021/03/30 03:06:11;;;;;;;3.83;2.85;;;6.10;37.10;;;;;;4941591;29;20210;-82
2021/03/30 03:08:39;;;;;;;3.70;2.95;;;6.00;37.00;;;;;;4940708;29;20269;-82
2021/03/30 03:11:07;;;;;;;4.47;3.13;;;5.90;37.00;;;;;;4941186;29;20345;-82
2021/03/30 03:13:37;;;;;;;3.53;2.97;;;5.90;37.80;;;;;;4941950;29;20690;-82
2021/03/30 03:16:04;;;;;;;3.95;3.22;;;6.00;37.80;;;;;;4943737;29;20238;-82
2021/03/30 03:18:31;;;;;;;4.53;2.83;;;5.90;38.30;;;;;;4948006;29;20230;-82
2021/03/30 03:20:58;;;;;;;7.15;2.65;;;5.90;38.30;;;;;;4943193;29;20218;-82
2021/03/30 03:23:26;;;;;;;5.60;2.95;;;5.90;38.20;;;;;;4942259;29;20300;-82
2021/03/30 03:25:53;;;;;;;9.57;3.78;;;5.80;38.10;;;;;;4952446;29;20291;-82
2021/03/30 03:28:20;;;;;;;3.35;2.85;;;5.80;38.10;;;;;;4940230;29;20324;-83
2021/03/30 03:30:47;;;;;;;4.50;2.90;;;5.80;38.00;;;;;;4951142;29;20238;-82
2021/03/30 03:33:15;;;;;;;3.80;3.28;;;5.80;38.50;;;;;;4949087;29;20215;-82
2021/03/30 03:35:42;;;;;;;5.25;3.28;;;5.70;39.10;;;;;;4940591;29;20210;-83
2021/03/30 03:38:09;;;;;;;4.50;2.90;;;5.60;39.10;;;;;;4939801;29;20255;-83
2021/03/30 03:40:35;;;;;;;5.82;3.10;;;5.70;38.40;;;;;;4939433;29;20241;-82
2021/03/30 03:43:03;;;;;;;4.05;3.05;;;5.60;38.60;;;;;;4938942;29;20245;-83
2021/03/30 03:45:29;;;;;;;2.67;2.40;;;5.60;39.10;;;;;;4938808;29;20301;-83
2021/03/30 03:47:56;;;;;;;3.65;3.10;;;5.50;39.30;;;;;;4939263;29;20218;-83
2021/03/30 03:50:22;;;;;;;5.18;3.47;;;5.50;39.50;;;;;;4940847;29;20663;-82
2021/03/30 03:52:52;;;;;;;3.85;3.00;;;5.50;39.60;;;;;;4954840;28;20437;-83
2021/03/30 03:55:21;;;;;;;4.68;3.10;;;5.50;39.70;;;;;;4942895;29;20334;-82
2021/03/30 03:57:51;;;;;;;4.45;2.85;;;5.50;39.70;;;;;;4940326;29;20266;-82
2021/03/30 04:00:36;;;;;;;4.18;2.85;;;5.50;39.30;;;;;;4948757;29;20234;-82
2021/03/30 04:03:08;;;;;;;3.03;2.67;;;5.50;39.50;;;;;;4948405;29;20234;-83
2021/03/30 04:05:39;;;;;;;3.38;2.95;;;5.40;39.70;;;;;;4950971;29;20245;-82
2021/03/30 04:08:11;;;;;;;4.07;3.33;;;5.40;40.00;;;;;;4945990;29;20549;-82
2021/03/30 04:10:42;;;;;;;4.18;3.50;;;5.30;40.20;;;;;;4942984;29;20237;-83
2021/03/30 04:13:10;;;;;;;4.25;2.90;;;5.30;40.70;;;;;;4952711;29;20186;-82
2021/03/30 04:15:38;;;;;;;5.18;3.38;;;5.20;41.20;;;;;;4952910;29;20225;-82
2021/03/30 04:18:06;;;;;;;7.60;3.53;;;5.30;41.30;;;;;;4942460;29;20495;-81
2021/03/30 04:20:32;;;;;;;4.60;2.80;;;5.30;41.00;;;;;;4942809;29;20217;-82
2021/03/30 04:22:59;;;;;;;3.00;2.70;;;5.30;41.10;;;;;;4944327;29;20347;-82
2021/03/30 04:25:26;;;;;;;4.65;3.40;;;5.40;41.20;;;;;;4943331;29;20214;-82
2021/03/30 04:27:53;;;;;;;3.85;2.88;;;5.40;41.10;;;;;;4944219;29;20261;-82
2021/03/30 04:30:21;;;;;;;3.85;3.20;;;5.30;41.30;;;;;;4956640;28;20214;-82
2021/03/30 04:32:48;;;;;;;6.10;3.65;;;5.30;41.30;;;;;;4956209;29;20202;-82
2021/03/30 04:35:15;;;;;;;5.07;3.38;;;5.30;41.60;;;;;;4956577;29;20209;-82
2021/03/30 04:37:41;;;;;;;5.50;3.10;;;5.30;41.90;;;;;;4956291;29;20250;-83
2021/03/30 04:40:11;;;;;;;4.38;3.92;;;5.30;42.10;;;;;;4955726;29;20261;-83
2021/03/30 04:42:38;;;;;;;6.10;3.28;;;5.30;42.20;;;;;;4951942;28;20198;-84
2021/03/30 04:45:05;;;;;;;4.82;3.35;;;5.30;43.00;;;;;;4958891;28;20207;-83
2021/03/30 04:47:32;;;;;;;5.50;3.47;;;5.30;42.30;;;;;;4961662;28;20253;-84
2021/03/30 04:49:59;;;;;;;4.70;3.90;;;5.20;42.40;;;;;;4961915;28;20194;-83
2021/03/30 04:52:25;;;;;;;5.10;3.67;;;5.20;42.90;;;;;;4959430;28;20229;-83
2021/03/30 04:54:52;;;;;;;3.67;3.03;;;5.10;43.20;;;;;;4955775;29;20207;-82
2021/03/30 04:57:18;;;;;;;3.70;3.40;;;5.10;43.50;;;;;;4958378;29;20488;-82
2021/03/30 04:59:45;;;;;;;10.05;3.75;;;5.00;43.80;;;;;;4959153;29;20222;-82
2021/03/30 05:02:11;;;;;;;6.95;4.22;;;5.10;44.00;;;;;;4958565;29;20214;-82
2021/03/30 05:04:37;;;;;;;5.95;3.40;;;5.10;43.70;;;;;;4950665;29;20258;-82
2021/03/30 05:07:05;;;;;;;5.20;3.60;;;5.10;43.70;;;;;;4943178;29;20215;-83
2021/03/30 05:09:31;;;;;;;4.03;3.28;;;5.10;43.80;;;;;;4943540;29;20218;-83
2021/03/30 05:11:58;;;;;;;6.63;2.80;;;5.20;44.00;;;;;;4942952;29;20229;-82
2021/03/30 05:14:24;;;;;;;4.43;3.40;;;5.20;43.80;;;;;;4943322;29;20230;-82
2021/03/30 05:16:51;;;;;;;3.70;2.80;;;5.20;43.80;;;;;;4943412;29;20242;-82
2021/03/30 05:19:17;;;;;;;4.80;3.63;;;5.20;43.70;;;;;;4943376;29;20245;-81
2021/03/30 05:21:43;;;;;;;4.40;3.20;;;5.20;43.50;;;;;;4944653;29;20249;-82
2021/03/30 05:24:11;;;;;;;4.65;3.22;;;5.20;43.20;;;;;;4943027;29;20309;-82
2021/03/30 05:26:37;;;;;;;3.65;3.28;;;5.30;43.00;;;;;;4945755;29;20289;-82
2021/03/30 05:29:04;;;;;;;5.70;2.97;;;5.20;43.20;;;;;;4953341;29;20234;-82
2021/03/30 05:31:31;;;;;;;4.60;3.10;;;5.30;43.40;;;;;;4955408;29;20269;-83
2021/03/30 05:33:57;;;;;;;3.90;3.08;;;5.60;42.90;;;;;;4942971;29;20230;-83
2021/03/30 05:36:24;;;;;;;5.72;3.17;;;5.90;41.80;;;;;;4946134;29;20218;-81
2021/03/30 05:38:50;;;;;;;3.40;2.88;;;6.10;41.20;;;;;;4951434;29;20226;-82
2021/03/30 05:41:18;;;;;;;4.68;2.95;;;6.40;40.30;;;;;;4959702;28;20254;-82
2021/03/30 05:43:45;;;;;;;8.27;3.67;;;6.70;39.10;;;;;;4954706;29;20203;-81
2021/03/30 05:46:12;;;;;;;4.03;3.53;;;6.90;37.80;;;;;;4942767;29;20210;-80
2021/03/30 05:48:43;;;;;;;5.22;3.10;;;7.20;38.10;;;;;;4944302;29;20231;-82
2021/03/30 05:51:13;;;;;;;5.93;3.20;;;7.40;37.40;;;;;;4942508;29;20195;-82
2021/03/30 05:53:43;;;;;;;4.60;3.25;;;7.70;36.90;;;;;;4945079;29;20214;-82
2021/03/30 05:56:12;;;;;;;5.63;3.10;;;7.80;35.20;;;;;;4947896;29;20254;-82
2021/03/30 05:58:46;;;;;;;5.20;3.10;;;7.70;35.10;;;;;;4953652;29;20242;-82
2021/03/30 06:01:14;;;;;;;9.63;3.90;;;7.70;34.90;;;;;;4946148;29;20194;-81
2021/03/30 06:03:41;;;;;;;4.68;3.33;;;7.50;36.10;;;;;;4944874;29;20217;-81
2021/03/30 06:06:08;;;;;;;12.02;3.45;;;7.50;35.80;;;;;;4957786;28;20217;-83
2021/03/30 06:08:35;;;;;;;3.35;3.05;;;7.50;35.90;;;;;;4957885;29;20238;-82
2021/03/30 06:11:05;;;;;;;5.25;3.53;;;7.40;37.00;;;;;;4954556;29;20206;-81
2021/03/30 06:13:47;;;;;;;6.40;3.70;;;7.20;36.40;;;;;;4953419;29;20558;-81
2021/03/30 06:16:24;;;;;;;4.78;3.58;;;7.10;36.80;;;;;;4953492;29;20594;-82
2021/03/30 06:19:04;;;;;;;5.05;3.35;;;7.00;37.60;;;;;;4952505;29;20227;-81
2021/03/30 06:21:31;;;;;;;6.93;3.50;;;6.90;37.80;;;;;;4955295;29;20209;-82
2021/03/30 06:23:59;;;;;;;5.18;3.55;;;6.90;37.80;;;;;;4951493;29;20210;-83
2021/03/30 06:26:26;;;;;;;9.27;4.05;;;7.00;37.90;;;;;;4959211;28;20214;-83
2021/03/30 06:28:55;;;;;;;4.65;4.05;;;7.00;37.90;;;;;;4959850;28;20270;-83
2021/03/30 06:31:21;;;;;;;4.90;3.75;;;7.00;37.90;;;;;;4959814;28;20246;-82
2021/03/30 06:33:51;;;;;;;9.45;4.82;;;7.10;38.00;;;;;;4951058;29;20215;-81
2021/03/30 06:36:20;;;;;;;9.77;4.30;;;7.20;38.10;;;;;;4948179;29;20210;-82
2021/03/30 06:38:51;;;;;;;7.25;4.53;;;7.20;38.10;;;;;;4948408;29;20226;-82
2021/03/30 06:41:38;;;;;;;7.22;4.25;;;7.30;38.10;;;;;;4946964;29;20290;-81
2021/03/30 06:44:27;;;;;;;4.97;3.97;;;7.30;38.10;;;;;;4949255;29;20691;-81
2021/03/30 06:47:03;;;;;;;6.00;3.90;;;7.30;38.10;;;;;;4950145;29;20203;-81
2021/03/30 06:49:31;;;;;;;9.80;3.70;;;7.30;38.10;;;;;;4954276;28;20301;-81
2021/03/30 06:51:59;;;;;;;8.45;3.45;;;7.40;38.20;;;;;;4947681;29;20210;-81
2021/03/30 06:54:26;;;;;;;5.22;3.88;;;7.60;38.40;;;;;;4949493;29;20234;-81
2021/03/30 06:56:53;;;;;;;7.80;4.18;;;7.70;37.70;;;;;;4952631;29;20214;-80
2021/03/30 06:59:22;;;;;;;5.35;4.28;;;7.80;37.30;;;;;;4946697;29;20222;-81
2021/03/30 07:01:50;;;;;;;7.78;4.57;;;8.00;37.00;;;;;;4948007;29;20222;-82
2021/03/30 07:04:18;;;;;;;11.48;4.50;;;8.10;36.70;;;;;;4958017;28;20207;-81
2021/03/30 07:06:50;;;;;;;6.03;4.80;;;8.20;36.60;;;;;;4958138;29;20472;-83
2021/03/30 07:09:17;;;;;;;6.90;4.90;;;8.40;36.10;;;;;;4957574;28;20233;-82
2021/03/30 07:11:44;;;;;;;6.85;4.70;;;8.50;35.90;;;;;;4945805;29;20249;-82
2021/03/30 07:14:11;;;;;;;7.32;4.80;;;8.60;35.80;;;;;;4943010;29;20211;-82
2021/03/30 07:16:48;;;;;;;9.65;6.15;;;8.60;35.80;;;;;;4953296;28;20194;-82
2021/03/30 07:19:18;;;;;;;8.50;5.38;;;8.70;35.80;;;;;;4951291;28;20269;-81
2021/03/30 07:21:52;;;;;;;8.48;6.05;;;8.80;35.30;;;;;;4946411;29;20217;-83
2021/03/30 07:24:23;;;;;;;18.75;5.30;;;9.00;34.60;;;;;;4946760;29;20187;-81
2021/03/30 07:26:57;;;;;;;7.00;5.32;;;9.10;34.70;;;;;;4949201;29;20385;-82
2021/03/30 07:29:26;;;;;;;7.57;4.80;;;9.30;34.10;;;;;;4956880;28;20270;-82
2021/03/30 07:32:00;;;;;;;5.15;4.65;;;9.50;33.40;;;;;;4957661;28;20211;-81
2021/03/30 07:34:33;;;;;;;6.80;4.70;;;9.60;32.30;;;;;;4949288;29;20201;-82
2021/03/30 07:37:04;;;;;;;5.68;4.68;;;9.70;31.70;;;;;;4950200;29;20215;-82
2021/03/30 07:39:34;;;;;;;8.63;4.50;;;9.80;31.70;;;;;;4951806;29;20226;-82
2021/03/30 07:42:01;;;;;;;8.27;5.13;;;9.90;31.80;;;;;;4958822;28;20190;-81
2021/03/30 07:44:28;;;;;;;7.78;4.50;;;10.10;30.80;;;;;;4958255;28;20203;-82
2021/03/30 07:46:56;;;;;;;7.05;4.70;;;10.20;30.00;;;;;;4956669;28;20296;-81
2021/03/30 07:49:29;;;;;;;6.30;4.97;;;10.30;29.90;;;;;;4955534;29;20245;-82
2021/03/30 07:52:15;;;;;;;6.05;4.95;;;10.50;30.00;;;;;;4956274;29;20238;-83
2021/03/30 07:55:20;;;;;;;5.40;4.90;;;10.70;30.20;;;;;;4948148;29;20229;-81
2021/03/30 07:57:58;;;;;;;9.73;4.82;;;10.90;30.10;;;;;;4955731;29;20226;-83
2021/03/30 08:00:46;;;;;;;7.15;5.57;;;11.00;30.40;;;;;;4950253;29;20602;-82
2021/03/30 08:03:16;;;;;;;8.82;5.68;;;11.10;29.60;;;;;;4942199;29;20207;-82
2021/03/30 08:05:43;;;;;;;6.70;5.15;;;11.20;28.80;;;;;;4941923;29;20246;-82
2021/03/30 08:08:23;;;;;;;6.97;5.78;;;11.30;28.60;;;;;;4942448;29;20334;-82
2021/03/30 08:10:51;;;;;;;8.57;5.57;;;11.50;28.30;;;;;;4941905;29;20245;-81
2021/03/30 08:13:25;;;;;;;8.93;5.80;;;11.70;27.70;;;;;;4942049;29;20214;-84
2021/03/30 08:15:53;;;;;;;7.43;5.30;;;11.80;27.30;;;;;;4945473;29;20226;-83
2021/03/30 08:18:23;;;;;;;7.00;5.18;;;11.90;26.90;;;;;;4949954;29;20222;-83
2021/03/30 08:21:01;;;;;;;5.32;4.20;;;12.00;25.70;;;;;;4947175;29;20287;-82
2021/03/30 08:23:29;;;;;;;8.90;4.93;;;12.10;24.10;;;;;;4947898;29;20208;-82
2021/03/30 08:26:17;;;;;;;4.75;4.30;;;12.10;24.70;;;;;;4948494;29;20218;-82
2021/03/30 08:28:59;;;;;;;6.40;4.53;;;12.30;24.90;;;;;;4948822;29;20230;-82
2021/03/30 08:31:28;;;;;;;5.25;4.57;;;12.50;24.90;;;;;;4952402;29;20198;-81
2021/03/30 08:33:57;;;;;;;6.50;4.20;;;12.70;24.40;;;;;;4955588;29;20281;-81
2021/03/30 08:36:29;;;;;;;6.45;3.80;;;12.90;24.10;;;;;;4952433;29;20210;-81
2021/03/30 08:38:59;;;;;;;4.97;3.60;;;13.00;24.10;;;;;;4948754;29;20226;-81
2021/03/30 08:41:55;;;;;;;4.13;3.30;;;13.10;24.00;;;;;;4948419;29;20314;-83
2021/03/30 08:44:37;;;;;;;5.00;3.33;;;13.30;24.10;;;;;;4949564;29;20223;-82
2021/03/30 08:47:03;;;;;;;4.85;3.30;;;13.40;24.10;;;;;;4949067;29;20210;-82
2021/03/30 08:49:38;;;;;;;3.25;2.95;;;13.70;24.40;;;;;;4950073;29;20290;-82
2021/03/30 08:52:10;;;;;;;2.67;2.45;;;13.90;24.50;;;;;;4945734;29;20270;-82
2021/03/30 08:54:44;;;;;;;5.70;3.13;;;14.00;24.60;;;;;;4945502;29;20206;-83
2021/03/30 08:57:11;;;;;;;5.75;3.45;;;13.90;24.50;;;;;;4943845;29;20199;-81
2021/03/30 08:59:39;;;;;;;4.35;2.65;;;13.90;24.50;;;;;;4945324;29;20226;-82
2021/03/30 09:02:06;;;;;;;5.35;3.40;;;13.80;24.40;;;;;;4946094;29;20224;-82
2021/03/30 09:04:37;;;;;;;4.85;3.22;;;14.00;24.50;;;;;;4944193;29;20246;-81
2021/03/30 09:07:04;;;;;;;8.15;2.75;;;14.30;23.50;;;;;;4943866;29;20194;-82
2021/03/30 09:09:34;;;;;;;5.85;3.95;;;14.50;23.30;;;;;;4943599;29;20239;-83
2021/03/30 09:12:02;;;;;;;5.00;2.70;;;14.60;23.20;;;;;;4942210;29;20270;-84
2021/03/30 09:14:29;;;;;;;6.33;3.37;;;14.60;23.30;;;;;;4943496;29;20718;-81
2021/03/30 09:17:05;;;;;;;5.43;3.63;;;14.80;22.50;;;;;;4951335;28;20482;-82
2021/03/30 09:19:32;;;;;;;4.83;3.30;;;14.80;22.90;;;;;;4957568;28;20472;-81
2021/03/30 09:22:02;;;;;;;7.13;2.90;;;14.90;22.90;;;;;;4953182;29;20472;-81
2021/03/30 09:24:46;;;;;;;8.70;4.20;;;15.10;22.60;;;;;;4945601;29;20217;-81
2021/03/30 09:27:14;;;;;;;5.47;3.70;;;15.40;22.50;;;;;;4943489;29;20441;-82
2021/03/30 09:29:41;;;;;;;5.63;4.17;;;15.70;22.80;;;;;;4944105;29;20421;-82
2021/03/30 09:32:11;;;;;;;7.10;4.07;;;15.80;22.10;;;;;;4947778;29;20465;-82
2021/03/30 09:34:38;;;;;;;5.00;3.77;;;15.80;22.00;;;;;;4947467;29;20469;-82
2021/03/30 09:37:06;;;;;;;7.63;4.23;;;16.00;21.90;;;;;;4944864;29;20457;-81
2021/03/30 09:39:35;;;;;;;6.00;3.80;;;16.20;21.80;;;;;;4947045;29;20422;-81
2021/03/30 09:42:07;;;;;;;10.03;4.37;;;16.40;21.70;;;;;;4950141;29;20513;-85
2021/03/30 09:44:36;;;;;;;6.73;3.60;;;16.60;21.50;;;;;;4946893;29;20492;-81
2021/03/30 09:47:03;;;;;;;3.97;3.67;;;16.90;21.90;;;;;;4944843;29;20461;-82
2021/03/30 09:49:30;;;;;;;7.90;3.70;;;17.10;21.30;;;;;;4945994;29;20492;-82
2021/03/30 09:52:01;;;;;;;5.43;4.20;;;17.30;20.90;;;;;;4950887;29;20420;-82
2021/03/30 09:54:31;;;;;;;6.47;4.03;;;17.30;20.90;;;;;;4953816;29;20453;-81
2021/03/30 09:57:03;;;;;;;7.13;4.37;;;17.40;20.90;;;;;;4951130;29;20523;-82
2021/03/30 09:59:30;;;;;;;7.50;5.10;;;17.50;21.10;;;;;;4946009;29;20448;-82
2021/03/30 10:01:58;;;;;;;8.00;5.60;;;17.70;21.30;;;;;;4956448;28;20434;-83
2021/03/30 10:04:26;;;;;;;5.70;4.73;;;17.60;21.30;;;;;;4960065;28;20421;-83
2021/03/30 10:06:53;;;;;;;7.80;4.73;;;17.80;21.30;;;;;;4960451;28;20461;-82
2021/03/30 10:09:20;;;;;;;8.13;4.53;;;18.00;21.10;;;;;;4960218;28;20474;-82
2021/03/30 10:11:49;;;;;;;5.73;4.70;;;18.10;21.00;;;;;;4959892;28;20406;-83
2021/03/30 10:14:25;;;;;;;8.73;4.97;;;18.20;20.60;;;;;;4960409;28;20462;-83
2021/03/30 10:16:54;;;;;;;8.33;5.20;;;18.10;20.90;;;;;;4948688;29;20547;-82
2021/03/30 10:19:21;;;;;;;8.57;4.37;;;18.20;21.10;;;;;;4945618;29;20458;-83
2021/03/30 10:21:52;;;;;;;7.37;5.10;;;18.30;21.30;;;;;;4944288;29;20483;-81
2021/03/30 10:24:19;;;;;;;9.20;5.93;;;18.10;21.20;;;;;;4949065;29;20538;-81
2021/03/30 10:27:09;;;;;;;6.70;5.03;;;17.90;21.70;;;;;;4952068;28;20478;-82
2021/03/30 10:29:38;;;;;;;10.90;5.03;;;18.10;21.20;;;;;;4952673;28;20492;-82
2021/03/30 10:32:12;;;;;;;7.20;5.50;;;18.20;21.40;;;;;;4945920;29;20490;-82
2021/03/30 10:34:39;;;;;;;10.87;5.07;;;18.50;21.60;;;;;;4944623;29;20459;-82
2021/03/30 10:37:07;;;;;;;6.60;4.57;;;18.60;21.80;;;;;;4943186;29;20478;-81
2021/03/30 10:39:37;;;;;;;6.73;4.67;;;18.90;20.50;;;;;;4945230;29;20447;-81
2021/03/30 10:42:07;;;;;;;8.17;5.13;;;19.10;20.00;;;;;;4944380;29;20561;-81
2021/03/30 10:44:35;;;;;;;8.77;5.50;;;19.30;20.10;;;;;;4945205;29;20443;-81
2021/03/30 10:47:14;;;;;;;13.83;5.67;;;19.30;20.10;;;;;;4944870;29;20454;-81
2021/03/30 10:49:41;;;;;;;10.70;5.40;;;19.40;20.30;;;;;;4944849;29;20494;-81
2021/03/30 10:52:12;;;;;;;7.40;5.30;;;19.50;20.30;;;;;;4944429;29;20463;-82
2021/03/30 10:54:39;;;;;;;8.60;4.60;;;19.60;20.40;;;;;;4945322;29;20475;-82
2021/03/30 10:57:10;;;;;;;8.00;5.20;;;19.70;20.40;;;;;;4945729;29;20446;-81
2021/03/30 10:59:36;;;;;;;8.17;5.70;;;19.90;20.60;;;;;;4945799;29;20454;-81
2021/03/30 11:02:03;;;;;;;7.67;5.20;;;20.10;20.00;;;;;;4949996;29;20459;-81
2021/03/30 11:04:30;;;;;;;9.73;5.60;;;20.20;20.40;;;;;;4949746;29;20461;-81
2021/03/30 11:06:57;;;;;;;11.87;5.90;;;20.20;19.90;;;;;;4950529;29;20458;-81
2021/03/30 11:09:25;;;;;;;7.80;6.30;;;20.40;19.80;;;;;;4950306;29;20482;-83
2021/03/30 11:11:53;;;;;;;9.63;6.70;;;20.40;20.20;;;;;;4948772;29;20462;-83
2021/03/30 11:14:21;;;;;;;9.33;6.40;;;20.50;20.50;;;;;;4950948;29;20468;-83
2021/03/30 11:16:48;;;;;;;7.43;6.20;;;20.60;20.20;;;;;;4951947;29;20461;-82
2021/03/30 11:19:15;;;;;;;19.27;7.77;;;20.60;20.30;;;;;;4951699;29;20498;-82
2021/03/30 11:21:41;;;;;;;16.13;6.80;;;20.70;20.10;;;;;;4950203;29;20482;-82
2021/03/30 11:24:12;;;;;;;11.20;7.50;;;20.90;20.20;;;;;;4951286;29;20490;-82
2021/03/30 11:26:41;;;;;;;10.23;6.67;;;20.90;20.10;;;;;;4948333;29;20926;-82
2021/03/30 11:29:09;;;;;;;8.27;6.30;;;21.00;20.10;;;;;;4948820;29;20498;-82
2021/03/30 11:32:00;;;;;;;12.73;7.70;;;21.00;20.10;;;;;;4953784;29;20458;-82
2021/03/30 11:34:31;;;;;;;10.73;6.77;;;21.20;19.50;;;;;;4955763;29;20462;-82
2021/03/30 11:37:04;;;;;;;8.60;6.30;;;21.10;19.80;;;;;;4953248;29;20474;-81
2021/03/30 11:39:32;;;;;;;11.67;7.40;;;21.30;19.70;;;;;;4952561;29;20510;-82
2021/03/30 11:42:00;;;;;;;7.23;6.00;;;21.40;19.30;;;;;;4951381;29;20450;-81
2021/03/30 11:44:26;;;;;;;12.73;6.93;;;21.60;19.60;;;;;;4949926;29;20471;-82
2021/03/30 11:46:54;;;;;;;12.03;7.20;;;21.50;19.10;;;;;;4943294;29;20458;-82
2021/03/30 11:49:21;;;;;;;8.53;6.70;;;21.70;19.20;;;;;;4941880;29;20497;-82
2021/03/30 11:51:47;;;;;;;7.70;6.00;;;21.80;18.70;;;;;;4943290;29;20587;-81
2021/03/30 11:54:14;;;;;;;7.97;6.23;;;21.90;18.70;;;;;;4943920;29;20449;-81
2021/03/30 11:56:41;;;;;;;11.90;6.43;;;21.90;18.60;;;;;;4946457;29;20812;-82
2021/03/30 11:59:07;;;;;;;10.50;6.70;;;21.50;18.60;;;;;;4944326;29;20847;-81
2021/03/30 12:01:33;;;;;;;7.73;5.93;;;21.70;18.20;;;;;;4943669;29;20497;-81
2021/03/30 12:04:01;;;;;;;8.87;5.90;;;21.90;17.40;;;;;;4949991;29;20809;-81
2021/03/30 12:06:27;;;;;;;9.90;5.63;;;22.10;17.70;;;;;;4951726;29;20466;-82
2021/03/30 12:08:54;;;;;;;7.90;6.50;;;22.20;17.50;;;;;;4949749;29;20486;-81
2021/03/30 12:11:20;;;;;;;7.50;6.03;;;22.20;17.60;;;;;;4942567;29;20441;-81
2021/03/30 12:13:46;;;;;;;8.60;5.80;;;22.20;16.80;;;;;;4942505;29;20529;-81
2021/03/30 12:16:19;;;;;;;5.97;4.87;;;22.30;16.10;;;;;;4944133;29;20485;-80
2021/03/30 12:18:45;;;;;;;6.80;5.33;;;22.50;16.50;;;;;;4943751;29;20554;-81
2021/03/30 12:21:12;;;;;;;12.20;6.37;;;22.50;16.50;;;;;;4944184;29;20458;-81
2021/03/30 12:23:39;;;;;;;7.10;5.83;;;22.30;17.10;;;;;;4945566;29;20449;-80
2021/03/30 12:26:05;;;;;;;7.70;5.33;;;22.60;16.40;;;;;;4943273;29;20454;-81
2021/03/30 12:28:32;;;;;;;5.37;4.80;;;22.80;15.10;;;;;;4941806;29;20585;-81
2021/03/30 12:30:59;;;;;;;8.00;5.40;;;22.60;15.30;;;;;;4946098;29;20846;-81
2021/03/30 12:33:25;;;;;;;7.53;5.57;;;22.50;16.20;;;;;;4941687;29;20993;-82
2021/03/30 12:35:52;;;;;;;9.03;5.80;;;22.70;16.00;;;;;;4943443;29;20557;-81
2021/03/30 12:38:19;;;;;;;6.63;5.60;;;22.90;14.70;;;;;;4951206;29;20495;-81
2021/03/30 12:40:46;;;;;;;6.17;5.33;;;23.00;14.30;;;;;;4952619;29;20433;-81
2021/03/30 12:43:13;;;;;;;10.07;5.20;;;23.20;14.50;;;;;;4951183;29;20467;-81
2021/03/30 12:45:39;;;;;;;7.30;4.40;;;23.30;14.50;;;;;;4953070;29;20421;-82
2021/03/30 12:48:07;;;;;;;8.50;4.57;;;23.30;14.50;;;;;;4954844;28;20516;-83
2021/03/30 12:50:34;;;;;;;9.87;4.27;;;23.40;13.80;;;;;;4955925;28;20450;-81
2021/03/30 12:53:01;;;;;;;5.80;5.10;;;23.40;12.80;;;;;;4948771;28;20651;-82
2021/03/30 12:55:29;;;;;;;6.27;5.53;;;23.50;13.10;;;;;;4944557;28;20451;-82
2021/03/30 12:57:56;;;;;;;8.40;4.77;;;23.50;13.80;;;;;;4943130;29;20522;-82
2021/03/30 13:00:23;;;;;;;9.87;4.87;;;23.50;14.20;;;;;;4941953;29;20542;-81
2021/03/30 13:02:50;;;;;;;7.03;4.50;;;23.50;13.80;;;;;;4942211;29;20521;-80
2021/03/30 13:05:17;;;;;;;6.03;3.73;;;23.60;13.10;;;;;;4942652;29;20429;-80